createdAt,value
2018-05-10T00:01:11.325Z,17.30
2018-05-10T00:03:42.129Z,17.20
2018-05-10T00:06:12.740Z,17.20
2018-05-10T00:08:43.443Z,17.20
2018-05-10T00:11:32.847Z,17.10
2018-05-10T00:14:03.441Z,17.10
2018-05-10T00:16:34.006Z,17.00
2018-05-10T00:19:04.669Z,17.00
2018-05-10T00:21:36.298Z,16.90
2018-05-10T00:24:07.031Z,16.90
2018-05-10T00:26:37.600Z,16.90
2018-05-10T00:29:08.359Z,16.90
2018-05-10T00:31:38.912Z,16.90
2018-05-10T00:34:26.845Z,16.90
2018-05-10T00:36:58.399Z,16.90
2018-05-10T00:39:29.008Z,16.90
2018-05-10T00:41:59.534Z,16.80
2018-05-10T00:44:30.175Z,16.70
2018-05-10T00:47:01.213Z,16.70
2018-05-10T00:49:32.635Z,16.70
2018-05-10T00:52:03.220Z,16.70
2018-05-10T00:54:43.793Z,16.70
2018-05-10T00:57:14.260Z,16.70
2018-05-10T00:59:45.664Z,16.60
2018-05-10T01:02:36.179Z,16.60
2018-05-10T01:05:06.851Z,16.60
2018-05-10T01:07:38.158Z,16.50
2018-05-10T01:10:10.118Z,16.50
2018-05-10T01:12:40.732Z,16.50
2018-05-10T01:15:11.329Z,16.50
2018-05-10T01:17:53.893Z,16.50
2018-05-10T01:20:24.470Z,16.50
2018-05-10T01:22:55.188Z,16.50
2018-05-10T01:25:25.706Z,16.40
2018-05-10T01:27:56.338Z,16.40
2018-05-10T01:30:39.054Z,16.40
2018-05-10T01:33:09.512Z,16.40
2018-05-10T01:36:43.630Z,16.40
2018-05-10T01:39:14.214Z,16.40
2018-05-10T01:41:45.482Z,16.30
2018-05-10T01:44:16.115Z,16.30
2018-05-10T01:49:44.054Z,16.30
2018-05-10T01:52:14.531Z,16.20
2018-05-10T01:54:45.846Z,16.20
2018-05-10T01:57:17.699Z,16.20
2018-05-10T01:59:48.272Z,16.30
2018-05-10T02:02:18.869Z,16.20
2018-05-10T02:04:49.656Z,16.20
2018-05-10T02:07:20.140Z,16.20
2018-05-10T02:09:50.763Z,16.10
2018-05-10T02:12:38.528Z,16.10
2018-05-10T02:15:09.076Z,16.10
2018-05-10T02:17:40.303Z,16.10
2018-05-10T02:20:10.986Z,16.00
2018-05-10T02:22:41.469Z,16.10
2018-05-10T02:25:11.961Z,16.00
2018-05-10T02:27:42.431Z,16.00
2018-05-10T02:30:13.093Z,16.00
2018-05-10T02:32:44.304Z,15.90
2018-05-10T02:35:14.970Z,15.90
2018-05-10T02:37:46.210Z,15.80
2018-05-10T02:40:16.805Z,15.80
2018-05-10T02:42:47.290Z,15.80
2018-05-10T02:45:17.874Z,15.80
2018-05-10T02:47:48.351Z,15.80
2018-05-10T02:50:18.927Z,15.80
2018-05-10T02:52:49.486Z,15.70
2018-05-10T02:55:20.130Z,15.70
2018-05-10T02:57:50.636Z,15.70
2018-05-10T03:00:21.210Z,15.70
2018-05-10T03:02:51.820Z,15.70
2018-05-10T03:05:22.376Z,15.70
2018-05-10T03:07:52.832Z,15.70
2018-05-10T03:13:32.738Z,15.70
2018-05-10T03:16:03.415Z,15.70
2018-05-10T03:18:33.853Z,15.60
2018-05-10T03:21:04.437Z,15.60
2018-05-10T03:23:51.900Z,15.60
2018-05-10T03:26:22.404Z,15.60
2018-05-10T03:28:52.845Z,15.60
2018-05-10T03:31:46.031Z,15.60
2018-05-10T03:34:16.481Z,15.60
2018-05-10T03:36:47.866Z,15.50
2018-05-10T03:39:18.391Z,15.50
2018-05-10T03:41:49.847Z,15.50
2018-05-10T03:44:20.441Z,15.50
2018-05-10T03:46:50.998Z,15.50
2018-05-10T03:49:21.631Z,15.50
2018-05-10T03:51:52.251Z,15.50
2018-05-10T03:54:29.513Z,15.50
2018-05-10T03:57:00.847Z,15.50
2018-05-10T03:59:31.313Z,15.50
2018-05-10T04:02:01.928Z,15.50
2018-05-10T04:11:18.022Z,15.50
2018-05-10T04:13:48.624Z,15.50
2018-05-10T04:16:19.042Z,15.50
2018-05-10T04:18:51.894Z,15.50
2018-05-10T04:21:22.405Z,15.50
2018-05-10T04:23:53.576Z,15.60
2018-05-10T04:26:23.983Z,15.60
2018-05-10T04:28:54.366Z,15.60
2018-05-10T04:31:24.876Z,15.70
2018-05-10T04:34:18.237Z,15.70
2018-05-10T04:36:48.984Z,15.70
2018-05-10T04:39:19.405Z,15.80
2018-05-10T04:42:05.645Z,15.80
2018-05-10T04:44:36.134Z,15.90
2018-05-10T04:47:06.813Z,15.90
2018-05-10T04:49:39.385Z,16.00
2018-05-10T04:52:09.842Z,15.90
2018-05-10T04:54:41.041Z,16.10
2018-05-10T04:57:12.286Z,16.00
2018-05-10T04:59:43.388Z,16.00
2018-05-10T05:02:14.051Z,16.00
2018-05-10T05:04:44.993Z,16.00
2018-05-10T05:07:15.600Z,16.00
2018-05-10T05:09:46.234Z,16.00
2018-05-10T05:12:16.737Z,16.10
2018-05-10T05:14:49.682Z,16.00
2018-05-10T05:17:20.176Z,16.00
2018-05-10T05:19:50.766Z,16.10
2018-05-10T05:22:21.458Z,16.10
2018-05-10T05:24:52.177Z,16.10
2018-05-10T05:27:22.822Z,16.10
2018-05-10T05:29:55.809Z,16.10
2018-05-10T05:32:27.097Z,16.10
2018-05-10T05:34:57.626Z,16.10
2018-05-10T05:37:28.103Z,16.20
2018-05-10T05:39:58.611Z,16.20
2018-05-10T05:42:29.108Z,16.30
2018-05-10T05:44:59.678Z,16.40
2018-05-10T05:47:30.790Z,16.50
2018-05-10T05:50:01.249Z,16.60
2018-05-10T05:52:31.758Z,16.70
2018-05-10T05:55:02.748Z,16.70
2018-05-10T05:57:33.946Z,17.00
2018-05-10T06:00:04.702Z,17.00
2018-05-10T06:02:35.457Z,17.00
2018-05-10T06:05:06.050Z,16.90
2018-05-10T06:07:36.663Z,16.90
2018-05-10T06:10:08.087Z,17.00
2018-05-10T06:12:38.681Z,17.00
2018-05-10T06:15:12.425Z,17.20
2018-05-10T06:17:42.985Z,17.20
2018-05-10T06:20:13.547Z,17.20
2018-05-10T06:22:44.120Z,17.30
2018-05-10T06:25:25.106Z,17.20
2018-05-10T06:28:07.824Z,17.10
2018-05-10T06:30:41.316Z,17.00
2018-05-10T06:33:15.505Z,16.90
2018-05-10T06:35:51.248Z,16.90
2018-05-10T06:38:22.313Z,16.80
2018-05-10T06:40:52.800Z,16.70
2018-05-10T06:43:30.225Z,16.70
2018-05-10T06:46:03.170Z,16.90
2018-05-10T06:48:37.349Z,17.20
2018-05-10T06:51:07.853Z,17.20
2018-05-10T06:53:43.638Z,17.40
2018-05-10T06:56:14.513Z,17.70
2018-05-10T06:58:45.029Z,17.70
2018-05-10T07:01:19.360Z,17.80
2018-05-10T07:03:56.005Z,18.20
2018-05-10T07:06:27.403Z,18.40
2018-05-10T07:08:59.610Z,18.70
2018-05-10T07:11:30.688Z,18.80
2018-05-10T07:14:01.060Z,19.00
2018-05-10T07:16:31.322Z,19.40
2018-05-10T07:19:01.546Z,19.70
2018-05-10T07:21:31.914Z,19.60
2018-05-10T07:24:02.109Z,19.20
2018-05-10T07:26:32.435Z,19.20
2018-05-10T07:29:02.663Z,19.40
2018-05-10T07:31:32.967Z,19.70
2018-05-10T07:34:03.208Z,19.90
2018-05-10T07:36:33.521Z,20.00
2018-05-10T07:39:05.161Z,19.60
2018-05-10T07:41:35.397Z,19.60
2018-05-10T07:44:05.765Z,19.60
2018-05-10T07:46:37.458Z,19.80
2018-05-10T07:49:08.504Z,20.50
2018-05-10T07:51:38.725Z,20.50
2018-05-10T07:54:09.011Z,20.80
2018-05-10T07:56:39.611Z,20.90
2018-05-10T07:59:10.038Z,21.00
2018-05-10T08:01:40.352Z,21.10
2018-05-10T08:04:10.569Z,21.10
2018-05-10T08:06:41.657Z,21.50
2018-05-10T08:09:12.274Z,21.40
2018-05-10T08:11:42.495Z,21.20
2018-05-10T08:14:12.729Z,21.30
2018-05-10T08:16:44.079Z,21.20
2018-05-10T08:19:14.489Z,21.10
2018-05-10T08:21:44.830Z,21.00
2018-05-10T08:24:15.376Z,21.20
2018-05-10T08:26:46.901Z,21.30
2018-05-10T08:29:17.191Z,21.30
2018-05-10T08:31:47.513Z,20.90
2018-05-10T08:34:18.677Z,20.50
2018-05-10T08:36:49.139Z,20.50
2018-05-10T08:39:19.431Z,20.60
2018-05-10T08:41:49.677Z,20.60
2018-05-10T08:44:19.996Z,20.50
2018-05-10T08:46:50.371Z,20.60
2018-05-10T08:49:20.682Z,20.30
2018-05-10T08:51:51.742Z,20.10
2018-05-10T08:54:22.154Z,20.10
2018-05-10T08:56:52.546Z,20.10
2018-05-10T08:59:24.509Z,20.00
2018-05-10T09:02:01.052Z,20.00
2018-05-10T09:04:31.283Z,19.90
2018-05-10T09:07:01.643Z,19.90
2018-05-10T09:09:34.292Z,19.90
2018-05-10T09:12:05.776Z,20.00
2018-05-10T09:14:38.796Z,20.10
2018-05-10T09:17:12.352Z,20.00
2018-05-10T09:19:44.137Z,19.90
2018-05-10T09:22:16.524Z,19.70
2018-05-10T09:24:47.722Z,19.60
2018-05-10T09:27:19.383Z,19.80
2018-05-10T09:29:50.738Z,19.70
2018-05-10T09:32:32.946Z,19.60
2018-05-10T09:35:05.359Z,19.60
2018-05-10T09:37:38.161Z,20.10
2018-05-10T09:40:11.280Z,20.30
2018-05-10T09:42:42.596Z,20.30
2018-05-10T09:45:14.879Z,20.30
2018-05-10T09:47:53.347Z,20.50
2018-05-10T09:50:26.810Z,20.30
2018-05-10T09:52:58.394Z,20.30
2018-05-10T09:55:41.745Z,20.50
2018-05-10T09:58:13.882Z,20.20
2018-05-10T10:00:45.477Z,20.30
2018-05-10T10:03:15.844Z,20.50
2018-05-10T10:05:46.828Z,21.10
2018-05-10T10:08:17.081Z,21.00
2018-05-10T10:10:51.859Z,21.10
2018-05-10T10:13:22.114Z,21.30
2018-05-10T10:15:53.122Z,21.10
2018-05-10T10:18:23.325Z,21.10
2018-05-10T10:20:53.518Z,21.60
2018-05-10T10:23:23.890Z,22.00
2018-05-10T10:25:55.001Z,21.50
2018-05-10T10:28:25.446Z,21.50
2018-05-10T10:30:55.722Z,21.60
2018-05-10T10:33:28.956Z,20.80
2018-05-10T10:35:59.282Z,20.80
2018-05-10T10:38:29.715Z,20.90
2018-05-10T10:41:00.242Z,21.00
2018-05-10T10:43:30.619Z,20.80
2018-05-10T10:46:01.778Z,20.10
2018-05-10T10:48:32.170Z,20.10
2018-05-10T10:51:02.465Z,20.00
2018-05-10T10:53:33.441Z,20.20
2018-05-10T10:56:04.126Z,20.20
2018-05-10T10:58:34.558Z,20.20
2018-05-10T11:01:04.899Z,20.00
2018-05-10T11:03:35.260Z,19.20
2018-05-10T11:06:06.338Z,18.90
2018-05-10T11:08:40.366Z,18.90
2018-05-10T11:11:10.685Z,19.00
2018-05-10T11:13:40.936Z,18.70
2018-05-10T11:16:11.161Z,19.00
2018-05-10T11:18:41.380Z,18.90
2018-05-10T11:21:12.398Z,19.10
2018-05-10T11:23:43.419Z,19.10
2018-05-10T11:26:13.673Z,19.10
2018-05-10T11:28:44.889Z,19.10
2018-05-10T11:31:15.486Z,19.10
2018-05-10T11:33:45.889Z,18.60
2018-05-10T11:36:16.210Z,18.20
2018-05-10T11:38:46.494Z,17.90
2018-05-10T11:41:16.929Z,17.70
2018-05-10T11:43:47.659Z,17.50
2018-05-10T11:46:17.998Z,17.20
2018-05-10T11:48:48.248Z,17.00
2018-05-10T11:51:20.094Z,16.70
2018-05-10T11:53:51.376Z,16.60
2018-05-10T11:56:21.614Z,16.90
2018-05-10T11:58:51.822Z,17.00
2018-05-10T12:01:22.126Z,17.20
2018-05-10T12:03:52.305Z,17.10
2018-05-10T12:06:22.451Z,17.10
2018-05-10T12:08:52.716Z,17.10
2018-05-10T12:11:23.070Z,17.20
2018-05-10T12:13:53.277Z,17.30
2018-05-10T12:16:23.589Z,17.40
2018-05-10T12:18:53.786Z,17.50
2018-05-10T12:21:24.357Z,17.50
2018-05-10T12:23:54.579Z,17.30
2018-05-10T12:26:24.797Z,17.20
2018-05-10T12:28:54.996Z,17.20
2018-05-10T12:31:25.553Z,16.80
2018-05-10T12:33:55.826Z,16.60
2018-05-10T12:36:26.114Z,16.50
2018-05-10T12:38:56.452Z,16.30
2018-05-10T12:41:26.698Z,16.30
2018-05-10T12:43:57.037Z,16.20
2018-05-10T12:46:27.370Z,16.30
2018-05-10T12:48:57.701Z,16.30
2018-05-10T12:51:28.026Z,16.10
2018-05-10T12:53:58.606Z,16.10
2018-05-10T12:56:29.788Z,15.90
2018-05-10T12:59:00.043Z,15.90
2018-05-10T13:01:38.172Z,15.60
2018-05-10T13:04:08.503Z,15.60
2018-05-10T13:06:38.795Z,15.60
2018-05-10T13:09:11.352Z,15.70
2018-05-10T13:11:41.589Z,15.70
2018-05-10T13:14:12.785Z,15.70
2018-05-10T13:16:42.993Z,15.60
2018-05-10T13:19:13.271Z,15.60
2018-05-10T13:21:43.537Z,15.70
2018-05-10T13:24:13.870Z,15.80
2018-05-10T13:26:44.110Z,15.90
2018-05-10T13:29:14.425Z,15.90
2018-05-10T13:31:47.047Z,15.70
2018-05-10T13:34:17.350Z,15.80
2018-05-10T13:36:47.564Z,15.70
2018-05-10T13:39:17.762Z,15.90
2018-05-10T13:41:49.092Z,15.50
2018-05-10T13:44:19.276Z,15.50
2018-05-10T13:46:49.510Z,15.60
2018-05-10T13:49:19.866Z,15.60
2018-05-10T13:51:50.135Z,15.50
2018-05-10T13:54:20.358Z,15.50
2018-05-10T13:56:51.005Z,15.40
2018-05-10T13:59:21.994Z,15.20
2018-05-10T14:01:52.221Z,15.20
2018-05-10T14:04:22.622Z,15.30
2018-05-10T14:06:52.912Z,15.30
2018-05-10T14:09:23.206Z,15.30
2018-05-10T14:11:53.826Z,15.30
2018-05-10T14:14:24.843Z,15.60
2018-05-10T14:16:55.081Z,15.50
2018-05-10T14:19:26.691Z,15.60
2018-05-10T14:21:57.720Z,15.80
2018-05-10T14:24:27.976Z,15.80
2018-05-10T14:26:58.265Z,15.90
2018-05-10T14:29:28.449Z,16.00
2018-05-10T14:31:58.783Z,16.10
2018-05-10T14:34:29.058Z,16.30
2018-05-10T14:36:59.288Z,16.30
2018-05-10T14:39:29.644Z,16.40
2018-05-10T14:42:00.036Z,16.60
2018-05-10T14:44:30.254Z,16.80
2018-05-10T14:47:01.598Z,17.20
2018-05-10T14:49:31.881Z,17.20
2018-05-10T14:52:03.043Z,17.10
2018-05-10T14:54:33.721Z,17.10
2018-05-10T14:57:04.262Z,17.00
2018-05-10T14:59:34.513Z,16.90
2018-05-10T15:02:05.705Z,16.80
2018-05-10T15:04:36.018Z,16.80
2018-05-10T15:07:06.741Z,16.70
2018-05-10T15:09:37.112Z,16.50
2018-05-10T15:12:07.365Z,16.50
2018-05-10T15:14:37.600Z,16.40
2018-05-10T15:17:07.873Z,16.40
2018-05-10T15:19:38.205Z,16.50
2018-05-10T15:22:09.809Z,16.50
2018-05-10T15:24:40.886Z,16.50
2018-05-10T15:27:11.885Z,16.50
2018-05-10T15:29:44.143Z,16.40
2018-05-10T15:32:15.591Z,16.30
2018-05-10T15:34:47.303Z,16.30
2018-05-10T15:37:18.399Z,16.10
2018-05-10T15:39:48.639Z,16.10
2018-05-10T15:42:18.953Z,16.10
2018-05-10T15:44:49.249Z,16.00
2018-05-10T15:47:19.709Z,16.00
2018-05-10T15:49:49.928Z,16.00
2018-05-10T15:52:20.253Z,16.00
2018-05-10T15:54:50.480Z,16.00
2018-05-10T15:57:20.986Z,16.00
2018-05-10T15:59:51.183Z,16.00
2018-05-10T16:02:22.236Z,15.90
2018-05-10T16:04:59.882Z,15.90
2018-05-10T16:07:30.099Z,15.90
2018-05-10T16:10:00.330Z,15.80
2018-05-10T16:12:30.556Z,15.80
2018-05-10T16:15:01.569Z,15.80
2018-05-10T16:17:31.777Z,15.80
2018-05-10T16:20:02.190Z,15.70
2018-05-10T16:22:32.493Z,15.70
2018-05-10T16:25:02.696Z,15.70
2018-05-10T16:27:33.757Z,15.70
2018-05-10T16:30:05.005Z,15.70
2018-05-10T16:32:35.525Z,15.70
2018-05-10T16:35:06.540Z,15.80
2018-05-10T16:37:36.807Z,15.70
2018-05-10T16:40:09.410Z,15.80
2018-05-10T16:42:40.501Z,15.70
2018-05-10T16:45:10.807Z,15.70
2018-05-10T16:47:41.934Z,15.70
2018-05-10T16:50:12.130Z,15.70
2018-05-10T16:52:42.389Z,15.70
2018-05-10T16:55:13.383Z,15.70
2018-05-10T16:57:44.933Z,15.80
2018-05-10T17:00:15.568Z,15.80
2018-05-10T17:02:45.750Z,15.80
2018-05-10T17:05:16.011Z,15.80
2018-05-10T17:07:47.391Z,15.80
2018-05-10T17:10:17.622Z,15.80
2018-05-10T17:12:47.905Z,15.80
2018-05-10T17:15:18.423Z,15.90
2018-05-10T17:17:48.707Z,15.90
2018-05-10T17:20:18.894Z,15.90
2018-05-10T17:22:49.218Z,15.90
2018-05-10T17:25:19.506Z,15.80
2018-05-10T17:27:50.791Z,15.90
2018-05-10T17:30:21.077Z,15.90
2018-05-10T17:32:51.442Z,15.90
2018-05-10T17:35:21.645Z,15.90
2018-05-10T17:37:51.917Z,15.90
2018-05-10T17:40:23.031Z,16.00
2018-05-10T17:42:53.358Z,16.00
2018-05-10T17:45:25.978Z,16.00
2018-05-10T17:47:56.226Z,16.00
2018-05-10T17:50:26.533Z,15.90
2018-05-10T17:52:57.557Z,15.80
2018-05-10T17:55:27.934Z,15.80
2018-05-10T17:58:00.186Z,15.70
2018-05-10T18:00:30.562Z,15.70
2018-05-10T18:03:00.806Z,15.70
2018-05-10T18:05:32.217Z,15.60
2018-05-10T18:08:03.041Z,15.60
2018-05-10T18:10:33.227Z,15.60
2018-05-10T18:13:03.570Z,15.60
2018-05-10T18:15:34.632Z,15.50
2018-05-10T18:18:04.865Z,15.40
2018-05-10T18:20:35.830Z,15.40
2018-05-10T18:23:06.039Z,15.40
2018-05-10T18:28:37.594Z,15.40
2018-05-10T18:31:08.612Z,15.40
2018-05-10T18:33:51.589Z,15.40
2018-05-10T18:36:21.794Z,15.40
2018-05-10T18:38:52.767Z,15.40
2018-05-10T18:41:22.904Z,15.40
2018-05-10T18:43:53.593Z,15.40
2018-05-10T18:46:26.215Z,15.40
2018-05-10T18:48:56.458Z,15.30
2018-05-10T18:51:26.609Z,15.20
2018-05-10T18:53:56.946Z,15.30
2018-05-10T18:56:27.880Z,15.30
2018-05-10T18:58:59.159Z,15.30
2018-05-10T19:01:30.001Z,15.30
2018-05-10T19:04:01.096Z,15.20
2018-05-10T19:06:32.904Z,15.10
2018-05-10T19:09:04.010Z,14.90
2018-05-10T19:11:35.874Z,14.90
2018-05-10T19:14:06.235Z,14.90
2018-05-10T19:16:36.450Z,14.80
2018-05-10T19:19:07.522Z,14.90
2018-05-10T19:21:39.041Z,14.90
2018-05-10T19:24:09.299Z,14.80
2018-05-10T19:26:39.636Z,14.90
2018-05-10T19:29:10.761Z,14.90
2018-05-10T19:31:41.064Z,14.90
2018-05-10T19:34:12.054Z,14.90
2018-05-10T19:36:42.261Z,14.90
2018-05-10T19:39:12.505Z,15.00
2018-05-10T19:41:42.761Z,14.90
2018-05-10T19:44:12.985Z,14.80
2018-05-10T19:46:43.953Z,14.70
2018-05-10T19:49:14.253Z,14.70
2018-05-10T19:51:44.592Z,14.60
2018-05-10T19:54:14.948Z,14.60
2018-05-10T19:56:45.359Z,14.60
2018-05-10T19:59:30.501Z,14.50
2018-05-10T20:02:00.801Z,14.40
2018-05-10T20:04:31.331Z,14.40
2018-05-10T20:07:01.666Z,14.20
2018-05-10T20:09:31.943Z,14.00
2018-05-10T20:12:02.219Z,13.90
2018-05-10T20:14:32.482Z,13.90
2018-05-10T20:17:02.797Z,13.80
2018-05-10T20:19:33.111Z,13.80
2018-05-10T20:22:04.231Z,13.70
2018-05-10T20:24:34.474Z,13.70
2018-05-10T20:27:04.785Z,13.60
2018-05-10T20:29:35.036Z,13.60
2018-05-10T20:32:05.889Z,13.60
2018-05-10T20:34:36.097Z,13.50
2018-05-10T20:37:06.523Z,13.50
2018-05-10T20:39:36.742Z,13.50
2018-05-10T20:42:07.879Z,13.50
2018-05-10T20:44:38.227Z,13.40
2018-05-10T20:47:08.616Z,13.50
2018-05-10T20:49:38.913Z,13.50
2018-05-10T20:52:09.158Z,13.50
2018-05-10T20:54:40.194Z,13.40
2018-05-10T20:57:10.589Z,13.40
2018-05-10T20:59:40.857Z,13.40
2018-05-10T21:02:11.091Z,13.30
2018-05-10T21:04:42.476Z,13.20
2018-05-10T21:07:14.226Z,13.20
2018-05-10T21:09:44.590Z,13.20
2018-05-10T21:12:23.622Z,13.20
2018-05-10T21:14:55.354Z,13.30
2018-05-10T21:17:25.650Z,13.20
2018-05-10T21:19:56.751Z,13.20
2018-05-10T21:22:27.366Z,13.20
2018-05-10T21:24:57.685Z,13.20
2018-05-10T21:27:27.943Z,13.20
2018-05-10T21:29:59.755Z,13.20
2018-05-10T21:32:34.174Z,13.20
2018-05-10T21:35:15.436Z,13.30
2018-05-10T21:37:51.098Z,13.20
2018-05-10T21:40:21.706Z,13.30
2018-05-10T21:42:52.060Z,13.30
2018-05-10T21:45:22.252Z,13.40
2018-05-10T21:47:52.543Z,13.40
2018-05-10T21:50:28.145Z,13.50
2018-05-10T21:52:58.478Z,13.40
2018-05-10T21:55:28.736Z,13.40
2018-05-10T21:57:59.032Z,13.30
2018-05-10T22:00:29.295Z,13.30
2018-05-10T22:02:59.585Z,13.20
2018-05-10T22:05:29.893Z,13.30
2018-05-10T22:08:00.378Z,13.30
2018-05-10T22:10:30.635Z,13.20
2018-05-10T22:13:01.363Z,13.20
2018-05-10T22:15:31.673Z,13.20
2018-05-10T22:18:02.738Z,13.20
2018-05-10T22:20:34.278Z,13.20
2018-05-10T22:23:04.631Z,13.20
2018-05-10T22:25:34.929Z,13.10
2018-05-10T22:28:05.652Z,13.20
2018-05-10T22:30:36.959Z,13.10
2018-05-10T22:33:07.408Z,13.10
2018-05-10T22:35:37.985Z,13.10
2018-05-10T22:38:08.304Z,13.10
2018-05-10T22:40:38.769Z,13.00
2018-05-10T22:43:09.106Z,12.90
2018-05-10T22:45:40.114Z,12.90
2018-05-10T22:48:10.490Z,12.90
2018-05-10T22:50:43.147Z,12.90
2018-05-10T22:53:13.886Z,12.90
2018-05-10T22:55:44.177Z,13.00
2018-05-10T22:58:14.480Z,12.90
2018-05-10T23:00:44.736Z,12.90
2018-05-10T23:03:15.964Z,12.80
2018-05-10T23:05:47.080Z,12.60
2018-05-10T23:08:17.505Z,12.70
2018-05-10T23:10:47.793Z,12.60
2018-05-10T23:13:18.075Z,12.60
2018-05-10T23:15:48.422Z,12.50
2018-05-10T23:18:18.762Z,12.40
2018-05-10T23:20:49.018Z,12.40
2018-05-10T23:23:19.749Z,12.40
2018-05-10T23:25:50.015Z,12.40
2018-05-10T23:28:20.339Z,12.40
2018-05-10T23:30:50.632Z,12.30
2018-05-10T23:33:22.276Z,12.30
2018-05-10T23:35:53.375Z,12.20
2018-05-10T23:38:23.775Z,12.20
2018-05-10T23:40:56.510Z,12.20
2018-05-10T23:43:26.759Z,12.20
2018-05-10T23:45:57.134Z,12.10
2018-05-10T23:48:27.416Z,12.10
2018-05-10T23:50:57.749Z,12.00
2018-05-10T23:53:28.081Z,11.90
2018-05-10T23:55:58.330Z,11.80
2018-05-10T23:58:29.003Z,11.80
